createdAt,value
2023-07-04T00:04:52.802Z,47.67
2023-07-04T00:09:55.559Z,48.32
2023-07-04T00:14:58.360Z,48.05
2023-07-04T00:20:04.579Z,47.93
2023-07-04T00:25:08.383Z,48.07
2023-07-04T00:30:14.562Z,48.52
2023-07-04T00:35:18.740Z,48.26
2023-07-04T00:40:21.461Z,48.80
2023-07-04T00:45:28.401Z,48.91
2023-07-04T00:50:35.491Z,48.82
2023-07-04T00:55:41.953Z,49.08
2023-07-04T01:00:48.338Z,49.20
2023-07-04T01:06:03.491Z,49.33
2023-07-04T01:11:13.760Z,49.35
2023-07-04T01:16:19.418Z,49.39
2023-07-04T01:21:28.902Z,49.26
2023-07-04T01:26:38.037Z,49.57
2023-07-04T01:31:44.914Z,49.56
2023-07-04T01:36:48.476Z,49.21
2023-07-04T01:41:52.609Z,49.41
2023-07-04T01:46:55.358Z,49.60
2023-07-04T01:51:58.170Z,49.84
2023-07-04T01:57:02.349Z,49.91
2023-07-04T02:02:05.926Z,49.77
2023-07-04T02:07:08.849Z,50.51
2023-07-04T02:12:13.023Z,50.52
2023-07-04T02:17:16.731Z,50.47
2023-07-04T02:22:19.563Z,50.44
2023-07-04T02:27:23.817Z,50.61
2023-07-04T02:32:26.687Z,50.40
2023-07-04T02:37:29.561Z,50.44
2023-07-04T02:42:33.639Z,50.35
2023-07-04T02:47:36.718Z,50.31
2023-07-04T02:52:43.947Z,50.42
2023-07-04T02:57:49.796Z,50.38
2023-07-04T03:02:54.189Z,50.21
2023-07-04T03:07:58.753Z,50.42
2023-07-04T03:13:03.070Z,50.57
2023-07-04T03:18:11.286Z,50.74
2023-07-04T03:23:15.760Z,50.72
2023-07-04T03:28:20.628Z,50.80
2023-07-04T03:33:24.051Z,51.14
2023-07-04T03:38:27.473Z,51.14
2023-07-04T03:43:31.659Z,51.10
2023-07-04T03:48:34.839Z,51.69
2023-07-04T03:53:38.909Z,50.67
2023-07-04T03:58:43.387Z,50.70
2023-07-04T04:03:46.296Z,51.54
2023-07-04T04:08:49.286Z,51.53
2023-07-04T04:13:53.594Z,52.25
2023-07-04T04:18:56.635Z,52.52
2023-07-04T04:23:59.409Z,52.99
2023-07-04T04:29:04.436Z,53.52
2023-07-04T04:34:08.028Z,53.75
2023-07-04T04:39:10.857Z,53.86
2023-07-04T04:44:15.073Z,54.48
2023-07-04T04:49:19.297Z,54.48
2023-07-04T04:54:23.834Z,54.93
2023-07-04T04:59:28.201Z,54.54
2023-07-04T05:04:31.094Z,54.77
2023-07-04T05:09:34.410Z,55.47
2023-07-04T05:14:38.725Z,55.38
2023-07-04T05:19:41.966Z,55.83
2023-07-04T05:24:44.996Z,55.84
2023-07-04T05:29:49.996Z,56.12
2023-07-04T05:34:53.035Z,56.33
2023-07-04T05:39:55.904Z,56.42
2023-07-04T05:45:00.198Z,56.77
2023-07-04T05:50:03.190Z,57.00
2023-07-04T05:55:06.961Z,56.29
2023-07-04T06:00:13.184Z,54.88
2023-07-04T06:05:16.077Z,55.60
2023-07-04T06:10:19.043Z,55.10
2023-07-04T06:15:23.291Z,55.33
2023-07-04T06:20:27.423Z,55.37
2023-07-04T06:25:30.301Z,55.58
2023-07-04T06:30:36.235Z,55.40
2023-07-04T06:35:43.148Z,54.22
2023-07-04T06:40:56.781Z,52.52
2023-07-04T06:46:01.399Z,52.48
2023-07-04T06:51:06.473Z,52.56
2023-07-04T06:56:13.139Z,51.91
2023-07-04T07:01:18.213Z,51.37
2023-07-04T07:06:21.435Z,51.31
2023-07-04T07:11:25.888Z,50.55
2023-07-04T07:16:30.246Z,50.16
2023-07-04T07:21:33.177Z,50.38
2023-07-04T07:26:38.416Z,50.44
2023-07-04T07:31:43.086Z,50.67
2023-07-04T07:36:47.752Z,51.18
2023-07-04T07:41:50.873Z,51.89
2023-07-04T07:46:55.230Z,52.12
2023-07-04T07:52:00.882Z,52.05
2023-07-04T07:57:05.339Z,51.96
2023-07-04T08:02:14.501Z,51.86
2023-07-04T08:07:17.492Z,51.67
2023-07-04T08:12:20.423Z,51.33
2023-07-04T08:17:24.708Z,51.30
2023-07-04T08:22:29.884Z,51.19
2023-07-04T08:27:32.689Z,51.08
2023-07-04T08:32:36.981Z,50.64
2023-07-04T08:37:39.828Z,50.72
2023-07-04T08:42:43.236Z,51.01
2023-07-04T08:47:47.582Z,50.37
2023-07-04T08:52:57.560Z,50.54
2023-07-04T08:58:02.014Z,51.18
2023-07-04T09:03:28.320Z,50.58
2023-07-04T09:08:43.274Z,50.90
2023-07-04T09:13:49.908Z,50.89
2023-07-04T09:18:58.905Z,50.33
2023-07-04T09:24:03.912Z,49.86
2023-07-04T09:29:08.620Z,49.98
2023-07-04T09:34:18.132Z,49.52
2023-07-04T09:39:21.317Z,49.37
2023-07-04T09:44:29.125Z,49.32
2023-07-04T09:49:36.348Z,49.36
2023-07-04T09:54:41.300Z,49.74
2023-07-04T09:59:44.901Z,49.25
2023-07-04T10:04:51.245Z,48.95
2023-07-04T10:09:57.559Z,48.99
2023-07-04T10:15:02.265Z,48.59
2023-07-04T10:20:14.267Z,47.56
2023-07-04T10:25:20.388Z,46.80
2023-07-04T10:30:26.536Z,46.70
2023-07-04T10:35:33.938Z,46.11
2023-07-04T10:40:41.220Z,45.63
2023-07-04T10:46:00.213Z,46.21
2023-07-04T10:51:10.634Z,45.81
2023-07-04T10:56:21.662Z,46.33
2023-07-04T11:01:29.841Z,46.47
2023-07-04T11:06:40.153Z,46.11
2023-07-04T11:11:48.995Z,45.94
2023-07-04T11:16:55.591Z,46.36
2023-07-04T11:22:18.730Z,46.63
2023-07-04T11:27:25.322Z,46.55
2023-07-04T11:32:36.063Z,47.18
2023-07-04T11:37:46.200Z,47.69
2023-07-04T11:42:54.636Z,47.97
2023-07-04T11:48:02.265Z,47.98
2023-07-04T11:53:15.814Z,48.37
2023-07-04T11:58:20.688Z,48.75
2023-07-04T12:04:00.184Z,48.82
2023-07-04T12:09:05.042Z,49.11
2023-07-04T12:14:08.357Z,49.24
2023-07-04T12:19:17.194Z,49.44
2023-07-04T12:24:25.621Z,49.72
2023-07-04T12:39:47.324Z,49.89
2023-07-04T12:44:50.138Z,49.89
2023-07-04T12:49:55.956Z,49.87
2023-07-04T12:55:03.157Z,50.09
2023-07-04T13:00:13.131Z,49.90
2023-07-04T13:05:18.067Z,50.03
2023-07-04T13:10:25.795Z,50.32
2023-07-04T13:15:31.213Z,50.51
2023-07-04T13:20:37.760Z,50.88
2023-07-04T13:25:44.232Z,50.86
2023-07-04T13:35:53.993Z,50.90
2023-07-04T13:41:21.994Z,50.76
2023-07-04T13:46:25.552Z,50.83
2023-07-04T13:51:28.873Z,50.15
2023-07-04T13:56:33.339Z,49.18
2023-07-04T14:06:42.371Z,49.71
2023-07-04T14:11:46.807Z,49.76
2023-07-04T14:21:55.885Z,49.66
2023-07-04T14:27:00.359Z,49.52
2023-07-04T14:32:03.746Z,49.59
2023-07-04T14:37:07.499Z,49.82
2023-07-04T14:42:30.186Z,50.02
2023-07-04T14:47:33.963Z,50.35
2023-07-04T14:52:37.642Z,50.51
2023-07-04T14:57:44.552Z,50.38
2023-07-04T15:02:48.498Z,50.21
2023-07-04T15:07:51.452Z,50.63
2023-07-04T15:12:55.748Z,50.48
2023-07-04T15:18:01.063Z,50.25
2023-07-04T15:23:04.151Z,49.79
2023-07-04T15:28:08.523Z,49.95
2023-07-04T15:33:11.992Z,50.38
2023-07-04T15:38:20.478Z,50.41
2023-07-04T15:43:26.815Z,50.43
2023-07-04T15:48:30.031Z,50.55
2023-07-04T15:53:33.878Z,50.40
2023-07-04T15:58:38.706Z,50.13
2023-07-04T16:03:42.373Z,49.74
2023-07-04T16:08:45.496Z,49.81
2023-07-04T16:13:50.831Z,49.05
2023-07-04T16:18:53.934Z,48.82
2023-07-04T16:23:56.750Z,48.82
2023-07-04T16:29:01.045Z,48.95
2023-07-04T16:34:04.245Z,49.55
2023-07-04T16:39:07.544Z,48.93
2023-07-04T16:44:11.878Z,48.46
2023-07-04T16:49:14.933Z,48.41
2023-07-04T16:54:17.925Z,48.46
2023-07-04T16:59:22.317Z,48.16
2023-07-04T17:04:28.025Z,48.60
2023-07-04T17:09:31.072Z,48.53
2023-07-04T17:14:35.328Z,48.13
2023-07-04T17:19:38.278Z,48.12
2023-07-04T17:24:41.345Z,48.34
2023-07-04T17:29:45.849Z,48.34
2023-07-04T17:34:50.738Z,48.32
2023-07-04T17:39:55.010Z,48.05
2023-07-04T17:45:00.623Z,48.04
2023-07-04T17:50:03.814Z,48.02
2023-07-04T17:55:11.340Z,47.90
2023-07-04T18:00:16.521Z,47.93
2023-07-04T18:05:19.456Z,47.88
2023-07-04T18:10:26.173Z,48.17
2023-07-04T18:15:30.511Z,48.07
2023-07-04T18:20:33.539Z,47.94
2023-07-04T18:25:39.211Z,47.88
2023-07-04T18:30:43.540Z,48.06
2023-07-04T18:35:46.519Z,48.21
2023-07-04T18:40:52.174Z,48.04
2023-07-04T18:45:57.040Z,48.34
2023-07-04T18:51:09.108Z,47.86
2023-07-04T18:56:12.385Z,47.56
2023-07-04T19:01:19.108Z,47.14
2023-07-04T19:06:24.340Z,46.85
2023-07-04T19:11:30.474Z,46.58
2023-07-04T19:16:36.103Z,46.63
2023-07-04T19:21:40.149Z,46.31
2023-07-04T19:26:43.137Z,46.14
2023-07-04T19:31:51.583Z,46.04
2023-07-04T19:36:56.370Z,46.02
2023-07-04T19:41:59.398Z,45.54
2023-07-04T19:47:04.325Z,45.91
2023-07-04T19:52:13.866Z,45.83
2023-07-04T19:57:16.959Z,45.74
2023-07-04T20:02:22.494Z,45.60
2023-07-04T20:07:25.663Z,45.77
2023-07-04T20:12:28.674Z,45.38
2023-07-04T20:17:33.473Z,45.62
2023-07-04T20:22:38.392Z,45.55
2023-07-04T20:27:41.202Z,45.80
2023-07-04T20:32:52.348Z,45.69
2023-07-04T20:37:57.594Z,45.42
2023-07-04T20:43:01.304Z,45.46
2023-07-04T20:48:06.617Z,45.58
2023-07-04T20:53:09.634Z,45.17
2023-07-04T20:58:19.627Z,45.22
2023-07-04T21:03:25.310Z,45.38
2023-07-04T21:08:29.571Z,44.98
2023-07-04T21:13:33.141Z,45.02
2023-07-04T21:18:38.386Z,45.42
2023-07-04T21:23:41.906Z,46.16
2023-07-04T21:28:46.290Z,46.41
2023-07-04T21:33:50.923Z,46.10
2023-07-04T21:38:53.817Z,46.20
2023-07-04T21:43:56.869Z,46.69
2023-07-04T21:49:01.019Z,46.80
2023-07-04T21:54:04.241Z,46.64
2023-07-04T21:59:07.575Z,47.08
2023-07-04T22:04:12.333Z,46.85
2023-07-04T22:09:17.198Z,47.13
2023-07-04T22:14:27.525Z,47.42
2023-07-04T22:19:41.228Z,47.09
2023-07-04T22:24:44.015Z,47.33
2023-07-04T22:29:47.035Z,47.79
2023-07-04T22:34:51.377Z,47.83
2023-07-04T22:39:54.178Z,47.87
2023-07-04T22:44:57.182Z,47.90
2023-07-04T22:50:01.737Z,47.89
2023-07-04T22:55:05.296Z,47.97
2023-07-04T23:00:09.687Z,48.47
2023-07-04T23:05:13.938Z,48.73
2023-07-04T23:10:16.851Z,48.89
2023-07-04T23:15:20.168Z,48.93
2023-07-04T23:20:24.607Z,49.27
2023-07-04T23:25:29.111Z,49.31
2023-07-04T23:30:37.229Z,49.55
2023-07-04T23:35:41.386Z,49.84
2023-07-04T23:40:44.157Z,49.31
2023-07-04T23:45:47.342Z,49.47
2023-07-04T23:50:51.752Z,49.95
2023-07-04T23:55:54.765Z,50.06
